createdAt,value
2017-09-15T00:00:44.737Z,12.76
2017-09-15T00:03:11.208Z,12.83
2017-09-15T00:05:37.463Z,12.85
2017-09-15T00:08:04.443Z,12.93
2017-09-15T00:10:30.722Z,12.89
2017-09-15T00:12:56.957Z,12.96
2017-09-15T00:15:23.244Z,12.95
2017-09-15T00:17:49.798Z,13.02
2017-09-15T00:20:16.062Z,13.04
2017-09-15T00:22:43.050Z,13.06
2017-09-15T00:25:09.322Z,13.06
2017-09-15T00:27:35.558Z,12.99
2017-09-15T00:30:02.614Z,13.00
2017-09-15T00:32:29.634Z,13.03
2017-09-15T00:34:55.883Z,13.01
2017-09-15T00:37:22.879Z,13.03
2017-09-15T00:39:49.178Z,12.98
2017-09-15T00:42:16.169Z,13.10
2017-09-15T00:44:42.435Z,13.14
2017-09-15T00:47:09.477Z,13.09
2017-09-15T00:49:35.731Z,13.06
2017-09-15T00:52:02.021Z,12.99
2017-09-15T00:54:28.288Z,12.97
2017-09-15T00:56:54.546Z,12.99
2017-09-15T00:59:20.858Z,13.01
2017-09-15T01:01:47.116Z,12.98
2017-09-15T01:04:13.386Z,13.03
2017-09-15T01:06:40.405Z,13.10
2017-09-15T01:09:06.661Z,13.05
2017-09-15T01:11:33.690Z,13.09
2017-09-15T01:13:59.961Z,13.13
2017-09-15T01:16:26.196Z,13.02
2017-09-15T01:18:52.416Z,13.01
2017-09-15T01:21:18.661Z,13.09
2017-09-15T01:23:44.899Z,13.01
2017-09-15T01:26:11.109Z,13.04
2017-09-15T01:28:37.673Z,12.98
2017-09-15T01:31:03.896Z,12.97
2017-09-15T01:33:30.138Z,12.87
2017-09-15T01:35:56.663Z,12.90
2017-09-15T01:38:22.924Z,12.87
2017-09-15T01:40:49.149Z,12.77
2017-09-15T01:43:15.412Z,12.72
2017-09-15T01:45:41.643Z,12.73
2017-09-15T01:48:07.872Z,12.67
2017-09-15T01:50:34.124Z,12.66
2017-09-15T01:53:00.337Z,12.65
2017-09-15T01:55:26.564Z,12.59
2017-09-15T01:57:52.812Z,12.53
2017-09-15T02:00:19.051Z,12.53
2017-09-15T02:02:45.269Z,12.50
2017-09-15T02:05:11.807Z,12.47
2017-09-15T02:07:38.041Z,12.49
2017-09-15T02:10:04.333Z,12.45
2017-09-15T02:12:31.299Z,12.42
2017-09-15T02:14:57.527Z,12.45
2017-09-15T02:17:23.743Z,12.40
2017-09-15T02:19:49.995Z,12.30
2017-09-15T02:22:16.215Z,12.31
2017-09-15T02:24:42.428Z,12.39
2017-09-15T02:27:08.681Z,12.36
2017-09-15T02:29:35.649Z,12.28
2017-09-15T02:32:01.931Z,12.32
2017-09-15T02:34:28.208Z,12.30
2017-09-15T02:36:54.428Z,12.27
2017-09-15T02:39:20.647Z,12.26
2017-09-15T02:41:46.937Z,12.24
2017-09-15T02:44:13.221Z,12.23
2017-09-15T02:46:39.440Z,12.16
2017-09-15T02:49:05.680Z,12.17
2017-09-15T02:51:31.909Z,12.15
2017-09-15T02:53:58.129Z,12.19
2017-09-15T02:56:24.368Z,12.18
2017-09-15T02:58:50.592Z,12.12
2017-09-15T03:01:16.819Z,12.10
2017-09-15T03:03:43.304Z,12.07
2017-09-15T03:06:09.540Z,12.04
2017-09-15T03:08:35.768Z,12.03
2017-09-15T03:11:02.163Z,12.03
2017-09-15T03:13:29.123Z,12.05
2017-09-15T03:15:55.353Z,12.04
2017-09-15T03:18:21.631Z,12.03
2017-09-15T03:20:47.843Z,12.06
2017-09-15T03:23:14.074Z,12.01
2017-09-15T03:25:40.709Z,11.97
2017-09-15T03:28:06.936Z,11.94
2017-09-15T03:30:33.185Z,11.91
2017-09-15T03:32:59.447Z,11.95
2017-09-15T03:35:26.414Z,11.89
2017-09-15T03:37:52.635Z,11.85
2017-09-15T03:40:18.900Z,11.89
2017-09-15T03:42:45.124Z,11.79
2017-09-15T03:45:11.353Z,11.83
2017-09-15T03:47:37.989Z,11.76
2017-09-15T03:50:04.213Z,11.71
2017-09-15T03:52:30.423Z,11.67
2017-09-15T03:54:56.679Z,11.67
2017-09-15T03:57:22.901Z,11.63
2017-09-15T03:59:49.120Z,11.62
2017-09-15T04:02:15.562Z,11.62
2017-09-15T04:04:41.780Z,11.61
2017-09-15T04:07:07.988Z,11.63
2017-09-15T04:09:34.224Z,11.63
2017-09-15T04:12:00.468Z,11.62
2017-09-15T04:14:26.696Z,11.54
2017-09-15T04:16:53.116Z,11.58
2017-09-15T04:19:19.336Z,11.51
2017-09-15T04:21:45.544Z,11.45
2017-09-15T04:24:11.798Z,11.48
2017-09-15T04:26:38.016Z,11.48
2017-09-15T04:29:04.237Z,11.48
2017-09-15T04:31:30.464Z,11.44
2017-09-15T04:33:56.699Z,11.39
2017-09-15T04:36:22.911Z,11.39
2017-09-15T04:38:49.863Z,11.38
2017-09-15T04:41:16.111Z,11.47
2017-09-15T04:43:42.349Z,11.49
2017-09-15T04:46:08.576Z,11.46
2017-09-15T04:48:34.810Z,11.42
2017-09-15T04:51:01.072Z,11.47
2017-09-15T04:53:27.348Z,11.53
2017-09-15T04:55:53.580Z,11.52
2017-09-15T04:58:20.033Z,11.60
2017-09-15T05:00:46.259Z,11.60
2017-09-15T05:03:12.714Z,11.62
2017-09-15T05:05:38.947Z,11.64
2017-09-15T05:08:05.216Z,11.60
2017-09-15T05:10:31.436Z,11.61
2017-09-15T05:12:57.664Z,11.58
2017-09-15T05:15:23.883Z,11.54
2017-09-15T05:17:50.840Z,11.52
2017-09-15T05:20:17.109Z,11.46
2017-09-15T05:22:43.324Z,11.43
2017-09-15T05:25:09.564Z,11.48
2017-09-15T05:27:35.848Z,11.40
2017-09-15T05:30:02.828Z,11.43
2017-09-15T05:32:29.048Z,11.46
2017-09-15T05:34:55.299Z,11.43
2017-09-15T05:37:21.516Z,11.53
2017-09-15T05:39:47.731Z,11.48
2017-09-15T05:42:14.021Z,11.52
2017-09-15T05:44:40.973Z,11.49
2017-09-15T05:47:07.935Z,11.41
2017-09-15T05:49:34.183Z,11.46
2017-09-15T05:52:00.401Z,11.48
2017-09-15T05:54:26.620Z,11.52
2017-09-15T05:56:52.877Z,11.54
2017-09-15T05:59:19.101Z,11.58
2017-09-15T06:01:45.317Z,11.59
2017-09-15T06:04:11.806Z,11.61
2017-09-15T06:06:38.019Z,11.63
2017-09-15T06:09:04.260Z,11.69
2017-09-15T06:11:30.866Z,11.69
2017-09-15T06:13:57.369Z,11.70
2017-09-15T06:16:23.571Z,11.76
2017-09-15T06:18:50.879Z,11.72
2017-09-15T06:21:17.104Z,11.69
2017-09-15T06:23:43.319Z,11.74
2017-09-15T06:26:09.871Z,11.82
2017-09-15T06:28:36.098Z,11.81
2017-09-15T06:31:02.328Z,11.80
2017-09-15T06:33:28.584Z,11.82
2017-09-15T06:35:54.825Z,11.80
2017-09-15T06:38:21.780Z,11.83
2017-09-15T06:40:48.794Z,11.93
2017-09-15T06:43:15.027Z,11.87
2017-09-15T06:45:41.256Z,11.98
2017-09-15T06:48:07.534Z,12.01
2017-09-15T06:50:33.765Z,12.12
2017-09-15T06:52:59.991Z,12.17
2017-09-15T06:55:26.218Z,12.14
2017-09-15T06:57:52.446Z,12.16
2017-09-15T07:00:18.665Z,12.21
2017-09-15T07:02:44.976Z,12.18
2017-09-15T07:05:11.969Z,12.20
2017-09-15T07:07:38.221Z,12.11
2017-09-15T07:10:05.308Z,12.17
2017-09-15T07:12:31.516Z,12.14
2017-09-15T07:14:58.489Z,12.25
2017-09-15T07:17:24.712Z,12.37
2017-09-15T07:19:50.955Z,12.36
2017-09-15T07:22:17.211Z,12.30
2017-09-15T07:24:43.415Z,12.37
2017-09-15T07:27:09.796Z,12.41
2017-09-15T07:29:37.008Z,12.35
2017-09-15T07:32:03.232Z,12.39
2017-09-15T07:34:29.450Z,12.50
2017-09-15T07:36:55.890Z,12.57
2017-09-15T07:39:22.125Z,12.75
2017-09-15T07:41:48.362Z,12.87
2017-09-15T07:44:14.592Z,12.94
2017-09-15T07:46:40.844Z,12.92
2017-09-15T07:49:07.064Z,13.00
2017-09-15T07:51:33.577Z,13.15
2017-09-15T07:54:00.783Z,13.20
2017-09-15T07:56:27.805Z,13.38
2017-09-15T07:58:54.905Z,13.47
2017-09-15T08:01:21.135Z,13.53
2017-09-15T08:03:47.355Z,13.54
2017-09-15T08:06:13.595Z,13.57
2017-09-15T08:08:39.838Z,13.57
2017-09-15T08:11:06.101Z,13.72
2017-09-15T08:13:32.319Z,13.76
2017-09-15T08:15:58.572Z,13.82
2017-09-15T08:18:25.545Z,13.97
2017-09-15T08:20:51.761Z,13.95
2017-09-15T08:23:17.975Z,14.06
2017-09-15T08:25:44.970Z,14.03
2017-09-15T08:28:11.912Z,14.22
2017-09-15T08:30:38.125Z,14.25
2017-09-15T08:33:04.375Z,14.24
2017-09-15T08:35:30.595Z,14.30
2017-09-15T08:37:56.819Z,14.31
2017-09-15T08:40:23.080Z,14.46
2017-09-15T08:42:49.295Z,14.42
2017-09-15T08:45:15.517Z,14.67
2017-09-15T08:47:42.151Z,14.70
2017-09-15T08:50:08.374Z,14.72
2017-09-15T08:52:34.584Z,14.69
2017-09-15T08:55:01.033Z,14.73
2017-09-15T08:57:27.282Z,14.83
2017-09-15T08:59:53.492Z,14.84
2017-09-15T09:02:19.829Z,14.77
2017-09-15T09:04:46.052Z,14.98
2017-09-15T09:07:12.268Z,14.97
2017-09-15T09:09:39.995Z,15.06
2017-09-15T09:12:06.995Z,15.08
2017-09-15T09:14:33.215Z,15.26
2017-09-15T09:16:59.537Z,15.42
2017-09-15T09:19:26.256Z,15.37
2017-09-15T09:21:52.904Z,15.35
2017-09-15T09:24:19.583Z,15.50
2017-09-15T09:26:45.869Z,15.70
2017-09-15T09:29:12.499Z,15.81
2017-09-15T09:31:38.998Z,15.86
2017-09-15T09:34:05.985Z,15.66
2017-09-15T09:36:32.199Z,15.64
2017-09-15T09:38:59.426Z,15.77
2017-09-15T09:41:25.742Z,15.76
2017-09-15T09:43:51.910Z,15.95
2017-09-15T09:46:18.406Z,16.05
2017-09-15T09:48:44.643Z,16.03
2017-09-15T09:51:10.895Z,16.01
2017-09-15T09:53:37.835Z,16.22
2017-09-15T09:56:04.817Z,16.05
2017-09-15T09:58:31.356Z,16.23
2017-09-15T10:00:58.443Z,16.06
2017-09-15T10:03:24.657Z,16.15
2017-09-15T10:05:51.174Z,16.28
2017-09-15T10:08:17.411Z,16.28
2017-09-15T10:10:43.619Z,16.02
2017-09-15T10:13:09.864Z,15.77
2017-09-15T10:15:36.083Z,15.75
2017-09-15T10:18:02.304Z,15.60
2017-09-15T10:20:28.533Z,15.67
2017-09-15T10:22:54.737Z,16.00
2017-09-15T10:25:20.954Z,16.10
2017-09-15T10:27:47.165Z,16.17
2017-09-15T10:30:14.111Z,16.12
2017-09-15T10:32:41.089Z,16.46
2017-09-15T10:35:07.316Z,16.57
2017-09-15T10:37:33.512Z,16.55
2017-09-15T10:40:00.479Z,16.57
2017-09-15T10:42:26.709Z,16.59
2017-09-15T10:44:52.916Z,16.45
2017-09-15T10:47:19.890Z,16.22
2017-09-15T10:49:46.105Z,16.16
2017-09-15T10:52:12.315Z,16.11
2017-09-15T10:54:39.457Z,16.06
2017-09-15T10:57:06.412Z,16.04
2017-09-15T10:59:39.752Z,16.04
2017-09-15T11:02:05.959Z,16.03
2017-09-15T11:04:32.175Z,15.94
2017-09-15T11:06:58.452Z,15.94
2017-09-15T11:09:24.693Z,16.03
2017-09-15T11:11:50.912Z,16.50
2017-09-15T11:14:17.145Z,16.43
2017-09-15T11:16:43.360Z,16.58
2017-09-15T11:19:09.604Z,16.83
2017-09-15T11:21:35.829Z,16.88
2017-09-15T11:24:02.034Z,16.70
2017-09-15T11:26:28.432Z,16.44
2017-09-15T11:28:54.630Z,16.42
2017-09-15T11:31:20.840Z,16.45
2017-09-15T11:33:47.088Z,16.44
2017-09-15T11:36:14.060Z,16.44
2017-09-15T11:38:40.298Z,16.62
2017-09-15T11:41:06.552Z,16.75
2017-09-15T11:43:32.780Z,16.91
2017-09-15T11:45:59.721Z,16.89
2017-09-15T11:48:25.952Z,16.89
2017-09-15T11:50:52.176Z,16.89
2017-09-15T11:53:19.535Z,17.01
2017-09-15T11:55:45.813Z,17.05
2017-09-15T11:58:12.758Z,17.14
2017-09-15T12:00:40.057Z,17.18
2017-09-15T12:03:06.282Z,17.17
2017-09-15T12:05:32.496Z,17.41
2017-09-15T12:07:59.235Z,17.35
2017-09-15T12:10:26.268Z,17.39
2017-09-15T12:12:52.488Z,17.30
2017-09-15T12:15:20.464Z,17.08
2017-09-15T12:17:46.698Z,17.46
2017-09-15T12:20:12.921Z,17.83
2017-09-15T12:22:40.364Z,18.08
2017-09-15T12:25:07.344Z,18.31
2017-09-15T12:27:33.561Z,18.23
2017-09-15T12:29:59.804Z,17.92
2017-09-15T12:32:26.042Z,17.60
2017-09-15T12:34:52.256Z,17.64
2017-09-15T12:37:18.499Z,17.89
2017-09-15T12:39:45.461Z,18.71
2017-09-15T12:42:11.668Z,18.79
2017-09-15T12:44:38.150Z,18.97
2017-09-15T12:47:05.115Z,18.89
2017-09-15T12:49:31.347Z,18.93
2017-09-15T12:51:57.759Z,18.98
2017-09-15T12:54:24.699Z,18.89
2017-09-15T12:56:51.672Z,18.39
2017-09-15T12:59:17.908Z,18.30
2017-09-15T13:01:44.147Z,18.61
2017-09-15T13:04:10.356Z,18.93
2017-09-15T13:06:36.926Z,19.32
2017-09-15T13:09:03.188Z,18.57
2017-09-15T13:11:30.152Z,18.08
2017-09-15T13:13:57.155Z,18.57
2017-09-15T13:16:23.365Z,19.26
2017-09-15T13:18:49.563Z,19.07
2017-09-15T13:21:15.780Z,18.98
2017-09-15T13:23:42.743Z,19.31
2017-09-15T13:26:08.963Z,19.17
2017-09-15T13:28:35.635Z,18.55
2017-09-15T13:31:01.864Z,18.15
2017-09-15T13:33:28.089Z,17.93
2017-09-15T13:35:54.464Z,17.85
2017-09-15T13:38:21.555Z,17.67
2017-09-15T13:40:47.798Z,17.51
2017-09-15T13:43:14.052Z,17.46
2017-09-15T13:45:41.347Z,17.43
2017-09-15T13:48:07.629Z,17.61
2017-09-15T13:50:34.027Z,18.28
2017-09-15T13:53:00.576Z,18.52
2017-09-15T13:55:26.803Z,18.58
2017-09-15T13:57:53.016Z,18.65
2017-09-15T14:00:19.672Z,19.12
2017-09-15T14:02:45.891Z,19.41
2017-09-15T14:05:12.100Z,18.88
2017-09-15T14:07:38.860Z,18.90
2017-09-15T14:10:05.235Z,18.76
2017-09-15T14:12:32.494Z,18.38
2017-09-15T14:15:00.015Z,18.28
2017-09-15T14:17:26.532Z,18.27
2017-09-15T14:19:52.752Z,17.91
2017-09-15T14:22:19.048Z,18.07
2017-09-15T14:24:46.008Z,18.17
2017-09-15T14:27:12.235Z,18.13
2017-09-15T14:29:38.439Z,18.04
2017-09-15T14:32:05.425Z,17.82
2017-09-15T14:34:31.681Z,17.81
2017-09-15T14:36:57.893Z,17.73
2017-09-15T14:39:24.127Z,17.67
2017-09-15T14:41:50.591Z,17.82
2017-09-15T14:44:17.589Z,17.77
2017-09-15T14:46:43.816Z,17.69
2017-09-15T14:49:10.092Z,17.70
2017-09-15T14:51:36.332Z,17.79
2017-09-15T14:54:02.769Z,18.01
2017-09-15T14:56:30.079Z,17.75
2017-09-15T14:58:56.302Z,17.58
2017-09-15T15:01:22.513Z,17.59
2017-09-15T15:03:49.071Z,17.55
2017-09-15T15:06:15.303Z,17.45
2017-09-15T15:08:41.517Z,17.39
2017-09-15T15:11:07.801Z,17.22
2017-09-15T15:13:34.768Z,17.25
2017-09-15T15:16:00.981Z,17.20
2017-09-15T15:18:27.970Z,17.22
2017-09-15T15:20:54.192Z,17.12
2017-09-15T15:23:20.418Z,17.06
2017-09-15T15:25:46.674Z,16.99
2017-09-15T15:28:12.888Z,16.94
2017-09-15T15:30:39.092Z,16.92
2017-09-15T15:33:05.359Z,16.90
2017-09-15T15:35:31.566Z,16.89
2017-09-15T15:37:57.773Z,16.88
2017-09-15T15:40:24.174Z,16.91
2017-09-15T15:42:51.141Z,16.85
2017-09-15T15:45:17.368Z,16.96
2017-09-15T15:47:43.606Z,17.12
2017-09-15T15:50:09.924Z,17.18
2017-09-15T15:52:36.183Z,17.21
2017-09-15T15:55:02.571Z,17.19
2017-09-15T15:57:29.541Z,17.13
2017-09-15T15:59:55.936Z,17.10
2017-09-15T16:02:23.061Z,17.08
2017-09-15T16:04:49.300Z,17.06
2017-09-15T16:07:16.085Z,16.97
2017-09-15T16:09:42.593Z,16.92
2017-09-15T16:12:09.571Z,16.86
2017-09-15T16:14:36.136Z,16.89
2017-09-15T16:17:02.385Z,16.93
2017-09-15T16:19:28.604Z,16.96
2017-09-15T16:21:55.013Z,16.96
2017-09-15T16:24:21.991Z,17.01
2017-09-15T16:26:48.233Z,17.07
2017-09-15T16:29:15.405Z,16.98
2017-09-15T16:31:41.648Z,16.93
2017-09-15T16:34:07.890Z,16.79
2017-09-15T16:36:34.667Z,16.70
2017-09-15T16:39:07.280Z,16.58
2017-09-15T16:41:40.128Z,16.57
2017-09-15T16:44:12.435Z,16.54
2017-09-15T16:46:44.952Z,16.51
2017-09-15T16:49:17.368Z,16.42
2017-09-15T16:51:44.417Z,16.32
2017-09-15T16:54:10.979Z,16.23
2017-09-15T16:56:37.436Z,16.23
2017-09-15T16:59:03.672Z,16.17
2017-09-15T17:01:30.012Z,16.53
2017-09-15T17:03:56.223Z,16.50
2017-09-15T17:06:22.772Z,16.17
2017-09-15T17:08:49.020Z,16.05
2017-09-15T17:11:15.224Z,16.01
2017-09-15T17:13:41.795Z,16.03
2017-09-15T17:16:09.015Z,16.02
2017-09-15T17:18:35.284Z,15.96
2017-09-15T17:21:02.268Z,15.84
2017-09-15T17:23:28.549Z,15.70
2017-09-15T17:25:55.784Z,15.60
2017-09-15T17:28:22.112Z,15.57
2017-09-15T17:30:49.043Z,15.54
2017-09-15T17:33:15.280Z,15.50
2017-09-15T17:35:42.035Z,15.36
2017-09-15T17:38:09.561Z,15.40
2017-09-15T17:40:35.794Z,15.52
2017-09-15T17:43:02.757Z,15.64
2017-09-15T17:45:29.275Z,15.20
2017-09-15T17:47:55.492Z,15.03
2017-09-15T17:50:21.891Z,15.00
2017-09-15T17:52:48.160Z,14.93
2017-09-15T17:55:15.327Z,14.88
2017-09-15T17:57:41.716Z,14.83
2017-09-15T18:00:08.893Z,14.76
2017-09-15T18:02:36.181Z,14.67
2017-09-15T18:05:03.161Z,14.61
2017-09-15T18:07:29.407Z,14.62
2017-09-15T18:09:56.727Z,14.61
2017-09-15T18:12:22.932Z,14.57
2017-09-15T18:14:50.140Z,14.52
2017-09-15T18:17:16.450Z,14.44
2017-09-15T18:19:42.672Z,14.41
2017-09-15T18:22:08.999Z,14.38
2017-09-15T18:24:35.228Z,14.34
2017-09-15T18:27:01.615Z,14.35
2017-09-15T18:29:28.096Z,14.27
2017-09-15T18:31:54.340Z,14.23
2017-09-15T18:34:20.568Z,14.20
2017-09-15T18:36:47.113Z,14.15
2017-09-15T18:39:13.687Z,14.13
2017-09-15T18:41:42.190Z,14.07
2017-09-15T18:44:08.865Z,14.10
2017-09-15T18:46:35.102Z,14.02
2017-09-15T18:49:02.492Z,14.01
2017-09-15T18:51:29.494Z,13.97
2017-09-15T18:53:57.682Z,13.94
2017-09-15T18:56:24.998Z,13.93
2017-09-15T18:58:52.405Z,13.94
2017-09-15T19:01:20.286Z,13.89
2017-09-15T19:03:47.516Z,13.87
2017-09-15T19:06:14.723Z,13.80
2017-09-15T19:08:42.771Z,13.82
2017-09-15T19:11:10.535Z,13.70
2017-09-15T19:13:37.196Z,13.74
2017-09-15T19:16:03.472Z,13.65
2017-09-15T19:18:30.452Z,13.62
2017-09-15T19:20:57.465Z,13.57
2017-09-15T19:23:23.722Z,13.52
2017-09-15T19:25:50.907Z,13.52
2017-09-15T19:28:17.131Z,13.47
2017-09-15T19:30:43.625Z,13.49
2017-09-15T19:33:10.835Z,13.46
2017-09-15T19:35:37.187Z,13.44
2017-09-15T19:38:03.550Z,13.40
2017-09-15T19:40:30.578Z,13.44
2017-09-15T19:42:56.824Z,13.33
2017-09-15T19:45:24.130Z,13.31
2017-09-15T19:47:50.742Z,13.29
2017-09-15T19:50:17.032Z,13.27
2017-09-15T19:52:43.412Z,13.25
2017-09-15T19:55:09.662Z,13.21
2017-09-15T19:57:35.926Z,13.19
2017-09-15T20:00:03.549Z,13.10
2017-09-15T20:02:29.788Z,13.08
2017-09-15T20:04:56.028Z,13.09
2017-09-15T20:07:22.306Z,13.00
2017-09-15T20:09:48.561Z,12.95
2017-09-15T20:12:15.080Z,12.97
2017-09-15T20:14:41.305Z,12.93
2017-09-15T20:17:07.520Z,12.85
2017-09-15T20:19:33.939Z,12.82
2017-09-15T20:22:00.253Z,12.81
2017-09-15T20:24:27.352Z,12.79
2017-09-15T20:26:53.728Z,12.76
2017-09-15T20:29:20.775Z,12.80
2017-09-15T20:31:47.887Z,12.73
2017-09-15T20:34:14.737Z,12.70
2017-09-15T20:36:41.209Z,12.65
2017-09-15T20:39:07.467Z,12.62
2017-09-15T20:41:34.044Z,12.63
2017-09-15T20:44:00.268Z,12.65
2017-09-15T20:46:26.836Z,12.59
2017-09-15T20:48:54.099Z,12.57
2017-09-15T20:51:21.266Z,12.55
2017-09-15T20:53:47.760Z,12.54
2017-09-15T20:56:14.069Z,12.54
2017-09-15T20:58:40.311Z,12.48
2017-09-15T21:01:06.535Z,12.48
2017-09-15T21:03:32.892Z,12.44
2017-09-15T21:05:59.861Z,12.46
2017-09-15T21:08:26.079Z,12.42
2017-09-15T21:10:52.584Z,12.43
2017-09-15T21:13:19.100Z,12.38
2017-09-15T21:15:45.342Z,12.38
2017-09-15T21:18:11.750Z,12.36
2017-09-15T21:20:37.977Z,12.34
2017-09-15T21:23:04.480Z,12.31
2017-09-15T21:25:30.746Z,12.30
2017-09-15T21:27:58.184Z,12.25
2017-09-15T21:30:26.170Z,12.25
2017-09-15T21:32:52.444Z,12.27
2017-09-15T21:35:19.416Z,12.26
2017-09-15T21:37:45.644Z,12.29
2017-09-15T21:40:11.879Z,12.27
2017-09-15T21:42:38.228Z,12.24
2017-09-15T21:45:04.664Z,12.30
2017-09-15T21:47:30.895Z,12.20
2017-09-15T21:49:57.144Z,12.21
2017-09-15T21:52:23.387Z,12.21
2017-09-15T21:54:50.341Z,12.19
2017-09-15T21:57:17.740Z,12.15
2017-09-15T21:59:44.281Z,12.11
2017-09-15T22:02:10.509Z,12.05
2017-09-15T22:04:40.121Z,12.11
2017-09-15T22:07:06.379Z,12.07
2017-09-15T22:09:33.363Z,12.05
2017-09-15T22:11:59.617Z,12.00
2017-09-15T22:14:25.856Z,11.98
2017-09-15T22:16:52.076Z,12.00
2017-09-15T22:19:18.303Z,12.07
2017-09-15T22:21:44.544Z,12.01
2017-09-15T22:24:10.988Z,11.97
2017-09-15T22:26:37.228Z,11.99
2017-09-15T22:29:04.184Z,11.98
2017-09-15T22:31:31.152Z,11.95
2017-09-15T22:33:57.377Z,11.91
2017-09-15T22:36:23.579Z,11.91
2017-09-15T22:38:50.790Z,11.86
2017-09-15T22:41:16.991Z,12.02
2017-09-15T22:43:43.219Z,11.97
2017-09-15T22:46:09.461Z,11.96
2017-09-15T22:48:35.678Z,11.84
2017-09-15T22:51:01.924Z,11.85
2017-09-15T22:53:28.191Z,11.95
2017-09-15T22:55:54.406Z,12.49
2017-09-15T22:58:21.449Z,12.21
2017-09-15T23:00:47.697Z,11.88
2017-09-15T23:03:14.655Z,11.84
2017-09-15T23:05:41.620Z,11.77
2017-09-15T23:08:08.077Z,11.74
2017-09-15T23:10:34.288Z,11.71
2017-09-15T23:13:00.499Z,11.64
2017-09-15T23:15:26.766Z,11.61
2017-09-15T23:17:52.994Z,11.58
2017-09-15T23:20:19.231Z,11.54
2017-09-15T23:22:45.495Z,11.49
2017-09-15T23:25:12.455Z,11.77
2017-09-15T23:27:38.667Z,12.18
2017-09-15T23:30:05.640Z,11.67
2017-09-15T23:32:31.871Z,11.50
2017-09-15T23:34:58.136Z,11.45
2017-09-15T23:37:24.344Z,11.36
2017-09-15T23:39:50.607Z,11.36
2017-09-15T23:42:17.117Z,11.32
2017-09-15T23:44:43.340Z,11.27
2017-09-15T23:47:09.559Z,11.29
2017-09-15T23:49:35.787Z,11.28
2017-09-15T23:52:02.029Z,11.26
2017-09-15T23:54:28.272Z,11.19
2017-09-15T23:56:54.540Z,11.19
2017-09-15T23:59:21.501Z,11.13
